sensor_id;sensor_type;location;lat;lon;timestamp;pressure;altitude;pressure_sealevel;temperature;humidity
22181;BME280;11256;50.830;12.834;2022-11-25T00:02:43;97583.03;;;6.97;77.15
22181;BME280;11256;50.830;12.834;2022-11-25T00:07:43;97570.81;;;6.85;76.64
22181;BME280;11256;50.830;12.834;2022-11-25T00:12:44;97582.69;;;6.89;77.27
22181;BME280;11256;50.830;12.834;2022-11-25T00:17:44;97575.41;;;6.84;77.16
22181;BME280;11256;50.830;12.834;2022-11-25T00:22:44;97572.66;;;6.79;76.79
22181;BME280;11256;50.830;12.834;2022-11-25T00:27:45;97574.50;;;6.74;77.33
22181;BME280;11256;50.830;12.834;2022-11-25T00:32:45;97565.81;;;6.62;77.03
22181;BME280;11256;50.830;12.834;2022-11-25T00:37:46;97570.13;;;6.63;76.86
22181;BME280;11256;50.830;12.834;2022-11-25T00:42:46;97567.38;;;6.58;77.49
22181;BME280;11256;50.830;12.834;2022-11-25T00:48:05;97542.50;;;6.41;77.31
22181;BME280;11256;50.830;12.834;2022-11-25T00:53:05;97563.56;;;6.49;77.33
22181;BME280;11256;50.830;12.834;2022-11-25T00:58:06;97565.13;;;6.45;76.86
22181;BME280;11256;50.830;12.834;2022-11-25T01:03:06;97562.41;;;6.40;77.03
22181;BME280;11256;50.830;12.834;2022-11-25T01:08:07;97572.06;;;6.36;76.65
22181;BME280;11256;50.830;12.834;2022-11-25T01:13:07;97567.69;;;6.30;77.00
22181;BME280;11256;50.830;12.834;2022-11-25T01:18:09;97571.41;;;6.24;76.71
22181;BME280;11256;50.830;12.834;2022-11-25T01:23:09;97572.97;;;6.20;77.12
22181;BME280;11256;50.830;12.834;2022-11-25T01:28:10;97566.50;;;6.16;77.01
22181;BME280;11256;50.830;12.834;2022-11-25T01:33:10;97563.78;;;6.11;77.09
22181;BME280;11256;50.830;12.834;2022-11-25T01:38:10;97546.22;;;6.03;76.94
22181;BME280;11256;50.830;12.834;2022-11-25T01:43:14;97565.38;;;6.12;76.99
22181;BME280;11256;50.830;12.834;2022-11-25T01:48:21;97551.59;;;6.03;76.78
22181;BME280;11256;50.830;12.834;2022-11-25T01:53:24;97573.41;;;6.07;76.81
22181;BME280;11256;50.830;12.834;2022-11-25T01:58:28;97576.34;;;6.05;77.09
22181;BME280;11256;50.830;12.834;2022-11-25T02:03:35;97571.16;;;5.99;76.85
22181;BME280;11256;50.830;12.834;2022-11-25T02:08:36;97566.31;;;5.96;76.77
22181;BME280;11256;50.830;12.834;2022-11-25T02:13:38;97575.44;;;5.95;76.86
22181;BME280;11256;50.830;12.834;2022-11-25T02:18:39;97575.16;;;5.91;76.73
22181;BME280;11256;50.830;12.834;2022-11-25T02:23:51;97568.34;;;5.84;76.66
22181;BME280;11256;50.830;12.834;2022-11-25T02:28:54;97570.94;;;5.79;76.30
22181;BME280;11256;50.830;12.834;2022-11-25T02:33:55;97565.50;;;5.74;76.44
22181;BME280;11256;50.830;12.834;2022-11-25T02:38:58;97567.06;;;5.70;76.85
22181;BME280;11256;50.830;12.834;2022-11-25T02:44:02;97578.34;;;5.67;76.15
22181;BME280;11256;50.830;12.834;2022-11-25T02:49:03;97572.34;;;5.60;76.71
22181;BME280;11256;50.830;12.834;2022-11-25T02:54:04;97548.53;;;5.47;76.39
22181;BME280;11256;50.830;12.834;2022-11-25T02:59:05;97553.38;;;5.45;76.38
22181;BME280;11256;50.830;12.834;2022-11-25T03:04:06;97573.84;;;5.51;76.58
22181;BME280;11256;50.830;12.834;2022-11-25T03:09:06;97580.28;;;5.50;76.61
22181;BME280;11256;50.830;12.834;2022-11-25T03:14:11;97579.72;;;5.48;76.60
22181;BME280;11256;50.830;12.834;2022-11-25T03:19:12;97579.66;;;5.43;76.73
22181;BME280;11256;50.830;12.834;2022-11-25T03:24:12;97571.53;;;5.38;76.24
22181;BME280;11256;50.830;12.834;2022-11-25T03:29:12;97573.66;;;5.36;76.62
22181;BME280;11256;50.830;12.834;2022-11-25T03:34:13;97581.66;;;5.31;76.62
22181;BME280;11256;50.830;12.834;2022-11-25T03:39:14;97562.72;;;5.21;76.35
22181;BME280;11256;50.830;12.834;2022-11-25T03:44:15;97565.66;;;5.19;76.17
22181;BME280;11256;50.830;12.834;2022-11-25T03:49:16;97570.53;;;5.22;76.63
22181;BME280;11256;50.830;12.834;2022-11-25T03:54:17;97571.84;;;5.20;76.37
22181;BME280;11256;50.830;12.834;2022-11-25T03:59:44;97550.69;;;5.02;76.14
22181;BME280;11256;50.830;12.834;2022-11-25T04:04:45;97576.91;;;5.16;76.39
22181;BME280;11256;50.830;12.834;2022-11-25T04:09:45;97584.34;;;5.09;76.26
22181;BME280;11256;50.830;12.834;2022-11-25T04:14:50;97577.09;;;5.10;76.33
22181;BME280;11256;50.830;12.834;2022-11-25T04:19:52;97580.53;;;5.05;76.02
22181;BME280;11256;50.830;12.834;2022-11-25T04:24:52;97565.09;;;4.96;76.33
22181;BME280;11256;50.830;12.834;2022-11-25T04:29:58;97590.13;;;5.01;76.37
22181;BME280;11256;50.830;12.834;2022-11-25T04:34:58;97592.41;;;4.93;76.27
22181;BME280;11256;50.830;12.834;2022-11-25T04:39:59;97573.47;;;4.83;76.44
22181;BME280;11256;50.830;12.834;2022-11-25T04:45:08;97589.50;;;4.94;76.68
22181;BME280;11256;50.830;12.834;2022-11-25T04:50:16;97586.97;;;4.88;77.05
22181;BME280;11256;50.830;12.834;2022-11-25T04:55:27;97587.72;;;4.83;76.87
22181;BME280;11256;50.830;12.834;2022-11-25T05:00:28;97586.34;;;4.81;77.20
22181;BME280;11256;50.830;12.834;2022-11-25T05:05:30;97566.78;;;4.64;77.10
22181;BME280;11256;50.830;12.834;2022-11-25T05:10:32;97583.50;;;4.71;76.66
22181;BME280;11256;50.830;12.834;2022-11-25T05:15:32;97583.97;;;4.68;77.05
22181;BME280;11256;50.830;12.834;2022-11-25T05:20:33;97589.03;;;4.64;76.36
22181;BME280;11256;50.830;12.834;2022-11-25T05:25:33;97589.69;;;4.55;76.68
22181;BME280;11256;50.830;12.834;2022-11-25T05:30:53;97572.16;;;4.31;76.85
22181;BME280;11256;50.830;12.834;2022-11-25T05:35:56;97575.47;;;4.21;77.10
22181;BME280;11256;50.830;12.834;2022-11-25T05:41:04;97592.84;;;4.19;77.28
22181;BME280;11256;50.830;12.834;2022-11-25T05:46:06;97586.34;;;4.15;77.29
22181;BME280;11256;50.830;12.834;2022-11-25T05:51:08;97573.25;;;4.02;77.26
22181;BME280;11256;50.830;12.834;2022-11-25T05:56:09;97597.97;;;4.04;77.52
22181;BME280;11256;50.830;12.834;2022-11-25T06:01:28;97595.47;;;3.86;77.49
22181;BME280;11256;50.830;12.834;2022-11-25T06:06:29;97592.63;;;3.76;77.85
22181;BME280;11256;50.830;12.834;2022-11-25T06:11:30;97594.63;;;3.69;77.77
22181;BME280;11256;50.830;12.834;2022-11-25T06:16:31;97593.81;;;3.68;78.16
22181;BME280;11256;50.830;12.834;2022-11-25T06:21:50;97600.16;;;3.79;77.97
22181;BME280;11256;50.830;12.834;2022-11-25T06:26:51;97595.38;;;3.81;77.38
22181;BME280;11256;50.830;12.834;2022-11-25T06:31:52;97603.59;;;3.91;77.22
22181;BME280;11256;50.830;12.834;2022-11-25T06:37:11;97607.00;;;3.86;77.06
22181;BME280;11256;50.830;12.834;2022-11-25T06:42:12;97604.56;;;3.85;77.28
22181;BME280;11256;50.830;12.834;2022-11-25T06:47:12;97614.22;;;3.86;77.19
22181;BME280;11256;50.830;12.834;2022-11-25T06:52:12;97609.94;;;3.85;77.11
22181;BME280;11256;50.830;12.834;2022-11-25T06:57:16;97603.41;;;3.81;77.09
22181;BME280;11256;50.830;12.834;2022-11-25T07:02:17;97622.94;;;3.93;77.15
22181;BME280;11256;50.830;12.834;2022-11-25T07:07:17;97618.56;;;3.87;76.87
22181;BME280;11256;50.830;12.834;2022-11-25T07:12:18;97634.25;;;3.95;77.01
22181;BME280;11256;50.830;12.834;2022-11-25T07:17:18;97644.50;;;3.98;76.96
22181;BME280;11256;50.830;12.834;2022-11-25T07:22:19;97634.81;;;3.97;76.68
22181;BME280;11256;50.830;12.834;2022-11-25T07:27:19;97642.38;;;4.00;76.61
22181;BME280;11256;50.830;12.834;2022-11-25T07:32:19;97646.97;;;4.16;76.61
22181;BME280;11256;50.830;12.834;2022-11-25T07:37:20;97642.84;;;4.25;76.70
22181;BME280;11256;50.830;12.834;2022-11-25T07:42:20;97653.72;;;4.35;76.75
22181;BME280;11256;50.830;12.834;2022-11-25T07:47:20;97665.31;;;4.68;78.02
22181;BME280;11256;50.830;12.834;2022-11-25T07:52:21;97659.41;;;5.21;80.07
22181;BME280;11256;50.830;12.834;2022-11-25T07:57:21;97650.41;;;6.13;79.85
22181;BME280;11256;50.830;12.834;2022-11-25T08:02:21;97672.28;;;7.11;77.12
22181;BME280;11256;50.830;12.834;2022-11-25T08:07:22;97674.00;;;7.73;74.41
22181;BME280;11256;50.830;12.834;2022-11-25T08:12:22;97670.78;;;8.53;72.67
22181;BME280;11256;50.830;12.834;2022-11-25T08:17:22;97671.31;;;9.55;71.49
22181;BME280;11256;50.830;12.834;2022-11-25T08:22:23;97658.91;;;10.66;70.22
22181;BME280;11256;50.830;12.834;2022-11-25T08:27:23;97667.06;;;11.61;67.37
22181;BME280;11256;50.830;12.834;2022-11-25T08:32:23;97656.19;;;12.32;64.19
22181;BME280;11256;50.830;12.834;2022-11-25T08:37:24;97673.38;;;13.20;62.05
22181;BME280;11256;50.830;12.834;2022-11-25T08:42:24;97674.13;;;13.98;59.82
22181;BME280;11256;50.830;12.834;2022-11-25T08:47:24;97662.16;;;14.75;59.17
22181;BME280;11256;50.830;12.834;2022-11-25T08:52:25;97676.00;;;15.58;58.04
22181;BME280;11256;50.830;12.834;2022-11-25T08:57:28;97675.72;;;15.68;54.28
22181;BME280;11256;50.830;12.834;2022-11-25T09:02:28;97676.84;;;16.06;53.30
22181;BME280;11256;50.830;12.834;2022-11-25T09:07:28;97651.78;;;16.04;53.26
22181;BME280;11256;50.830;12.834;2022-11-25T09:12:29;97660.94;;;15.25;51.47
22181;BME280;11256;50.830;12.834;2022-11-25T09:17:29;97656.59;;;14.80;52.12
22181;BME280;11256;50.830;12.834;2022-11-25T09:22:30;97683.19;;;14.74;51.87
22181;BME280;11256;50.830;12.834;2022-11-25T09:27:31;97667.56;;;13.99;53.01
22181;BME280;11256;50.830;12.834;2022-11-25T09:32:31;97678.56;;;13.94;52.37
22181;BME280;11256;50.830;12.834;2022-11-25T09:37:31;97673.63;;;13.37;53.66
22181;BME280;11256;50.830;12.834;2022-11-25T09:58:39;97675.50;;;11.60;62.23
22181;BME280;11256;50.830;12.834;2022-11-25T10:03:42;97681.09;;;11.40;65.35
22181;BME280;11256;50.830;12.834;2022-11-25T10:08:48;97663.34;;;11.24;67.30
22181;BME280;11256;50.830;12.834;2022-11-25T10:13:58;97665.97;;;11.34;70.04
22181;BME280;11256;50.830;12.834;2022-11-25T10:19:14;97669.78;;;11.33;70.03
22181;BME280;11256;50.830;12.834;2022-11-25T10:24:18;97663.53;;;11.32;71.45
22181;BME280;11256;50.830;12.834;2022-11-25T10:29:26;97652.09;;;11.35;74.84
22181;BME280;11256;50.830;12.834;2022-11-25T10:34:44;97668.38;;;11.35;72.40
22181;BME280;11256;50.830;12.834;2022-11-25T10:39:46;97665.47;;;11.27;73.04
22181;BME280;11256;50.830;12.834;2022-11-25T10:44:46;97668.63;;;11.39;75.32
22181;BME280;11256;50.830;12.834;2022-11-25T10:50:15;97662.16;;;11.35;74.28
22181;BME280;11256;50.830;12.834;2022-11-25T10:55:22;97663.22;;;11.39;73.11
22181;BME280;11256;50.830;12.834;2022-11-25T11:00:35;97660.97;;;11.46;72.18
22181;BME280;11256;50.830;12.834;2022-11-25T11:05:44;97663.09;;;11.49;71.71
22181;BME280;11256;50.830;12.834;2022-11-25T11:10:46;97666.72;;;11.68;72.06
22181;BME280;11256;50.830;12.834;2022-11-25T11:16:26;97640.00;;;11.80;72.40
22181;BME280;11256;50.830;12.834;2022-11-25T11:21:33;97634.44;;;12.32;71.15
22181;BME280;11256;50.830;12.834;2022-11-25T11:26:35;97630.34;;;12.53;71.10
22181;BME280;11256;50.830;12.834;2022-11-25T11:31:37;97638.19;;;12.54;71.47
22181;BME280;11256;50.830;12.834;2022-11-25T11:36:48;97642.00;;;12.90;70.27
22181;BME280;11256;50.830;12.834;2022-11-25T11:42:16;97639.28;;;13.09;68.75
22181;BME280;11256;50.830;12.834;2022-11-25T11:58:11;97637.94;;;13.25;66.97
22181;BME280;11256;50.830;12.834;2022-11-25T12:03:18;97632.69;;;13.28;64.42
22181;BME280;11256;50.830;12.834;2022-11-25T12:08:28;97638.34;;;13.32;64.21
22181;BME280;11256;50.830;12.834;2022-11-25T12:13:36;97626.38;;;13.14;65.14
22181;BME280;11256;50.830;12.834;2022-11-25T12:18:54;97626.78;;;13.08;65.38
22181;BME280;11256;50.830;12.834;2022-11-25T12:24:03;97633.84;;;13.09;63.77
22181;BME280;11256;50.830;12.834;2022-11-25T12:29:12;97626.34;;;13.01;64.87
22181;BME280;11256;50.830;12.834;2022-11-25T12:39:27;97609.66;;;13.07;64.34
22181;BME280;11256;50.830;12.834;2022-11-25T12:44:34;97614.00;;;13.22;62.53
22181;BME280;11256;50.830;12.834;2022-11-25T12:49:43;97628.03;;;13.15;63.91
22181;BME280;11256;50.830;12.834;2022-11-25T13:10:59;97633.44;;;13.02;62.53
22181;BME280;11256;50.830;12.834;2022-11-25T13:16:05;97627.28;;;12.91;62.91
22181;BME280;11256;50.830;12.834;2022-11-25T13:21:10;97636.78;;;12.94;62.33
22181;BME280;11256;50.830;12.834;2022-11-25T13:32:03;97649.13;;;12.86;62.09
22181;BME280;11256;50.830;12.834;2022-11-25T13:37:37;97651.41;;;12.79;61.75
22181;BME280;11256;50.830;12.834;2022-11-25T13:42:43;97653.41;;;12.74;61.92
22181;BME280;11256;50.830;12.834;2022-11-25T13:47:47;97650.75;;;12.69;61.18
22181;BME280;11256;50.830;12.834;2022-11-25T13:53:02;97659.28;;;12.62;62.04
22181;BME280;11256;50.830;12.834;2022-11-25T14:19:10;97674.81;;;12.20;61.60
22181;BME280;11256;50.830;12.834;2022-11-25T14:24:28;97681.41;;;12.14;61.81
22181;BME280;11256;50.830;12.834;2022-11-25T14:29:51;97694.53;;;12.07;62.06
22181;BME280;11256;50.830;12.834;2022-11-25T14:35:02;97691.47;;;11.90;62.16
22181;BME280;11256;50.830;12.834;2022-11-25T14:40:16;97706.72;;;11.86;62.62
22181;BME280;11256;50.830;12.834;2022-11-25T14:45:24;97707.63;;;11.76;62.83
22181;BME280;11256;50.830;12.834;2022-11-25T14:50:25;97704.75;;;11.68;63.08
22181;BME280;11256;50.830;12.834;2022-11-25T14:55:28;97717.03;;;11.60;63.14
22181;BME280;11256;50.830;12.834;2022-11-25T15:00:29;97720.91;;;11.49;63.70
22181;BME280;11256;50.830;12.834;2022-11-25T15:05:37;97736.97;;;11.41;63.76
22181;BME280;11256;50.830;12.834;2022-11-25T15:10:49;97737.88;;;11.31;64.10
22181;BME280;11256;50.830;12.834;2022-11-25T15:15:51;97741.41;;;11.27;64.40
22181;BME280;11256;50.830;12.834;2022-11-25T15:20:56;97745.56;;;11.19;64.18
22181;BME280;11256;50.830;12.834;2022-11-25T15:25:57;97748.63;;;11.08;64.55
22181;BME280;11256;50.830;12.834;2022-11-25T15:31:00;97747.09;;;10.97;65.07
22181;BME280;11256;50.830;12.834;2022-11-25T15:36:00;97772.00;;;10.99;64.94
22181;BME280;11256;50.830;12.834;2022-11-25T15:41:01;97767.97;;;10.91;65.27
22181;BME280;11256;50.830;12.834;2022-11-25T15:46:03;97779.91;;;10.90;65.16
22181;BME280;11256;50.830;12.834;2022-11-25T15:51:21;97772.13;;;10.79;65.40
22181;BME280;11256;50.830;12.834;2022-11-25T15:56:25;97782.41;;;10.82;64.74
22181;BME280;11256;50.830;12.834;2022-11-25T16:01:27;97767.56;;;10.69;65.30
22181;BME280;11256;50.830;12.834;2022-11-25T16:06:28;97780.03;;;10.70;64.80
22181;BME280;11256;50.830;12.834;2022-11-25T16:11:29;97779.78;;;10.62;65.28
22181;BME280;11256;50.830;12.834;2022-11-25T16:16:32;97789.59;;;10.53;65.57
22181;BME280;11256;50.830;12.834;2022-11-25T16:26:39;97790.47;;;10.43;65.80
22181;BME280;11256;50.830;12.834;2022-11-25T16:31:48;97797.78;;;10.38;65.62
22181;BME280;11256;50.830;12.834;2022-11-25T16:36:49;97800.53;;;10.23;65.85
22181;BME280;11256;50.830;12.834;2022-11-25T16:41:57;97805.44;;;10.16;66.04
22181;BME280;11256;50.830;12.834;2022-11-25T16:46:58;97815.16;;;10.22;66.62
22181;BME280;11256;50.830;12.834;2022-11-25T16:51:58;97803.00;;;10.04;66.92
22181;BME280;11256;50.830;12.834;2022-11-25T16:56:59;97825.47;;;10.10;67.01
22181;BME280;11256;50.830;12.834;2022-11-25T17:02:00;97817.09;;;9.96;67.01
22181;BME280;11256;50.830;12.834;2022-11-25T17:07:01;97831.97;;;9.99;67.33
22181;BME280;11256;50.830;12.834;2022-11-25T17:12:01;97817.91;;;9.87;67.43
22181;BME280;11256;50.830;12.834;2022-11-25T17:17:02;97830.63;;;9.81;67.85
22181;BME280;11256;50.830;12.834;2022-11-25T17:22:13;97841.72;;;9.85;67.97
22181;BME280;11256;50.830;12.834;2022-11-25T17:27:24;97849.31;;;9.78;67.78
22181;BME280;11256;50.830;12.834;2022-11-25T17:32:26;97849.88;;;9.70;68.47
22181;BME280;11256;50.830;12.834;2022-11-25T17:37:27;97862.31;;;9.71;68.53
22181;BME280;11256;50.830;12.834;2022-11-25T17:42:31;97872.56;;;9.69;68.53
22181;BME280;11256;50.830;12.834;2022-11-25T17:47:32;97879.06;;;9.68;68.60
22181;BME280;11256;50.830;12.834;2022-11-25T17:52:32;97863.91;;;9.57;68.64
22181;BME280;11256;50.830;12.834;2022-11-25T17:57:33;97887.72;;;9.60;68.63
22181;BME280;11256;50.830;12.834;2022-11-25T18:02:34;97893.38;;;9.53;69.05
22181;BME280;11256;50.830;12.834;2022-11-25T18:07:34;97881.75;;;9.43;68.97
22181;BME280;11256;50.830;12.834;2022-11-25T18:12:34;97902.84;;;9.46;69.02
22181;BME280;11256;50.830;12.834;2022-11-25T18:17:36;97909.59;;;9.43;68.96
22181;BME280;11256;50.830;12.834;2022-11-25T18:22:37;97907.16;;;9.32;69.36
22181;BME280;11256;50.830;12.834;2022-11-25T18:27:38;97921.75;;;9.41;69.48
22181;BME280;11256;50.830;12.834;2022-11-25T18:32:38;97927.72;;;9.38;69.65
22181;BME280;11256;50.830;12.834;2022-11-25T18:37:39;97933.38;;;9.36;69.58
22181;BME280;11256;50.830;12.834;2022-11-25T18:42:40;97921.19;;;9.24;69.79
22181;BME280;11256;50.830;12.834;2022-11-25T18:47:41;97938.25;;;9.34;70.12
22181;BME280;11256;50.830;12.834;2022-11-25T18:52:43;97953.66;;;9.34;70.02
22181;BME280;11256;50.830;12.834;2022-11-25T18:57:45;97959.59;;;9.26;70.34
22181;BME280;11256;50.830;12.834;2022-11-25T19:02:47;97947.09;;;9.10;70.05
22181;BME280;11256;50.830;12.834;2022-11-25T19:07:49;97949.81;;;9.10;70.35
22181;BME280;11256;50.830;12.834;2022-11-25T19:12:58;97973.06;;;9.16;70.24
22181;BME280;11256;50.830;12.834;2022-11-25T19:18:01;97986.00;;;9.09;70.25
22181;BME280;11256;50.830;12.834;2022-11-25T19:23:17;97983.28;;;9.09;70.50
22181;BME280;11256;50.830;12.834;2022-11-25T19:28:22;97990.34;;;9.10;70.65
22181;BME280;11256;50.830;12.834;2022-11-25T19:33:27;97999.22;;;9.05;70.48
22181;BME280;11256;50.830;12.834;2022-11-25T19:38:28;98009.25;;;9.05;70.69
22181;BME280;11256;50.830;12.834;2022-11-25T19:43:30;98002.44;;;8.97;70.82
22181;BME280;11256;50.830;12.834;2022-11-25T19:48:34;98013.50;;;8.96;71.32
22181;BME280;11256;50.830;12.834;2022-11-25T19:53:37;98025.91;;;8.92;71.33
22181;BME280;11256;50.830;12.834;2022-11-25T19:58:38;98038.94;;;9.00;71.10
22181;BME280;11256;50.830;12.834;2022-11-25T20:03:39;98038.34;;;8.93;71.28
22181;BME280;11256;50.830;12.834;2022-11-25T20:08:39;98053.47;;;8.89;71.26
22181;BME280;11256;50.830;12.834;2022-11-25T20:13:41;98053.41;;;8.79;71.42
22181;BME280;11256;50.830;12.834;2022-11-25T20:18:42;98075.84;;;8.84;71.79
22181;BME280;11256;50.830;12.834;2022-11-25T20:23:43;98068.88;;;8.88;71.74
22181;BME280;11256;50.830;12.834;2022-11-25T20:28:45;98083.16;;;8.84;71.55
22181;BME280;11256;50.830;12.834;2022-11-25T20:33:45;98092.88;;;8.85;72.12
22181;BME280;11256;50.830;12.834;2022-11-25T20:38:50;98085.00;;;8.78;71.93
22181;BME280;11256;50.830;12.834;2022-11-25T20:43:52;98098.78;;;8.77;71.98
22181;BME280;11256;50.830;12.834;2022-11-25T20:48:55;98090.31;;;8.68;71.90
22181;BME280;11256;50.830;12.834;2022-11-25T20:53:58;98112.84;;;8.79;72.38
22181;BME280;11256;50.830;12.834;2022-11-25T20:59:10;98114.38;;;8.70;72.16
22181;BME280;11256;50.830;12.834;2022-11-25T21:04:14;98123.06;;;8.72;72.39
22181;BME280;11256;50.830;12.834;2022-11-25T21:09:17;98127.84;;;8.65;72.17
22181;BME280;11256;50.830;12.834;2022-11-25T21:14:18;98129.47;;;8.66;72.25
22181;BME280;11256;50.830;12.834;2022-11-25T21:19:19;98144.06;;;8.65;72.52
22181;BME280;11256;50.830;12.834;2022-11-25T21:24:25;98146.50;;;8.66;72.42
22181;BME280;11256;50.830;12.834;2022-11-25T21:29:28;98149.47;;;8.65;72.62
22181;BME280;11256;50.830;12.834;2022-11-25T21:34:30;98135.84;;;8.50;72.46
22181;BME280;11256;50.830;12.834;2022-11-25T21:39:31;98151.81;;;8.56;72.61
22181;BME280;11256;50.830;12.834;2022-11-25T21:44:35;98170.97;;;8.55;72.77
22181;BME280;11256;50.830;12.834;2022-11-25T21:49:37;98168.84;;;8.57;73.18
22181;BME280;11256;50.830;12.834;2022-11-25T21:54:38;98166.09;;;8.52;73.04
22181;BME280;11256;50.830;12.834;2022-11-25T21:59:39;98183.63;;;8.49;72.89
22181;BME280;11256;50.830;12.834;2022-11-25T22:04:40;98181.69;;;8.45;73.42
22181;BME280;11256;50.830;12.834;2022-11-25T22:09:40;98190.88;;;8.49;73.04
22181;BME280;11256;50.830;12.834;2022-11-25T22:14:41;98204.09;;;8.45;74.05
22181;BME280;11256;50.830;12.834;2022-11-25T22:19:41;98169.91;;;8.29;73.40
22181;BME280;11256;50.830;12.834;2022-11-25T22:24:42;98196.22;;;8.39;73.55
22181;BME280;11256;50.830;12.834;2022-11-25T22:29:42;98193.75;;;8.37;73.36
22181;BME280;11256;50.830;12.834;2022-11-25T22:34:43;98219.28;;;8.51;73.61
22181;BME280;11256;50.830;12.834;2022-11-25T22:39:44;98227.03;;;8.43;73.59
22181;BME280;11256;50.830;12.834;2022-11-25T22:44:46;98231.34;;;8.44;73.74
22181;BME280;11256;50.830;12.834;2022-11-25T22:49:48;98238.34;;;8.40;73.57
22181;BME280;11256;50.830;12.834;2022-11-25T22:54:49;98230.19;;;8.35;73.70
22181;BME280;11256;50.830;12.834;2022-11-25T22:59:50;98230.06;;;8.25;73.64
22181;BME280;11256;50.830;12.834;2022-11-25T23:04:52;98239.22;;;8.24;73.55
22181;BME280;11256;50.830;12.834;2022-11-25T23:09:54;98237.91;;;8.26;74.44
22181;BME280;11256;50.830;12.834;2022-11-25T23:14:56;98234.06;;;8.22;73.63
22181;BME280;11256;50.830;12.834;2022-11-25T23:19:56;98265.22;;;8.30;73.93
22181;BME280;11256;50.830;12.834;2022-11-25T23:24:56;98239.91;;;8.14;73.78
22181;BME280;11256;50.830;12.834;2022-11-25T23:29:57;98262.16;;;8.21;73.52
22181;BME280;11256;50.830;12.834;2022-11-25T23:34:57;98244.56;;;8.02;73.64
22181;BME280;11256;50.830;12.834;2022-11-25T23:39:58;98271.16;;;8.10;73.50
22181;BME280;11256;50.830;12.834;2022-11-25T23:44:58;98265.63;;;8.00;73.64
22181;BME280;11256;50.830;12.834;2022-11-25T23:49:59;98276.47;;;8.05;73.44
22181;BME280;11256;50.830;12.834;2022-11-25T23:55:00;98277.88;;;8.08;73.63
